sensor_id;sensor_type;location;lat;lon;timestamp;pressure;altitude;pressure_sealevel;temperature;humidity
51313;BME280;37397;53.226;10.400;2022-11-20T00:00:16;100748.53;;;3.63;67.99
51313;BME280;37397;53.226;10.400;2022-11-20T00:02:43;100754.19;;;3.63;68.11
51313;BME280;37397;53.226;10.400;2022-11-20T00:05:09;100754.25;;;3.60;68.13
51313;BME280;37397;53.226;10.400;2022-11-20T00:07:36;100747.81;;;3.59;67.89
51313;BME280;37397;53.226;10.400;2022-11-20T00:10:03;100751.00;;;3.61;68.09
51313;BME280;37397;53.226;10.400;2022-11-20T00:12:29;100756.22;;;3.63;68.24
51313;BME280;37397;53.226;10.400;2022-11-20T00:14:56;100756.66;;;3.61;67.98
51313;BME280;37397;53.226;10.400;2022-11-20T00:17:25;100756.66;;;3.61;67.88
51313;BME280;37397;53.226;10.400;2022-11-20T00:19:52;100755.84;;;3.61;68.11
51313;BME280;37397;53.226;10.400;2022-11-20T00:22:19;100752.59;;;3.62;68.06
51313;BME280;37397;53.226;10.400;2022-11-20T00:24:46;100751.44;;;3.60;68.16
51313;BME280;37397;53.226;10.400;2022-11-20T00:27:12;100756.66;;;3.61;68.01
51313;BME280;37397;53.226;10.400;2022-11-20T00:29:39;100752.59;;;3.62;68.00
51313;BME280;37397;53.226;10.400;2022-11-20T00:32:06;100747.81;;;3.59;68.16
51313;BME280;37397;53.226;10.400;2022-11-20T00:34:32;100747.81;;;3.59;68.06
51313;BME280;37397;53.226;10.400;2022-11-20T00:36:59;100753.47;;;3.59;68.17
51313;BME280;37397;53.226;10.400;2022-11-20T00:39:25;100749.41;;;3.60;68.10
51313;BME280;37397;53.226;10.400;2022-11-20T00:41:52;100739.81;;;3.58;67.79
51313;BME280;37397;53.226;10.400;2022-11-20T00:44:18;100743.75;;;3.60;68.16
51313;BME280;37397;53.226;10.400;2022-11-20T00:46:45;100742.19;;;3.59;68.03
51313;BME280;37397;53.226;10.400;2022-11-20T00:49:11;100740.22;;;3.56;68.02
51313;BME280;37397;53.226;10.400;2022-11-20T00:51:38;100747.81;;;3.59;67.91
51313;BME280;37397;53.226;10.400;2022-11-20T00:54:05;100741.44;;;3.55;68.06
51313;BME280;37397;53.226;10.400;2022-11-20T00:56:31;100737.41;;;3.56;68.12
51313;BME280;37397;53.226;10.400;2022-11-20T00:59:00;100736.53;;;3.59;68.17
51313;BME280;37397;53.226;10.400;2022-11-20T01:01:27;100747.00;;;3.59;68.11
51313;BME280;37397;53.226;10.400;2022-11-20T01:03:57;100743.06;;;3.56;67.94
51313;BME280;37397;53.226;10.400;2022-11-20T01:06:35;100734.25;;;3.54;67.89
51313;BME280;37397;53.226;10.400;2022-11-20T01:09:09;100748.69;;;3.56;67.89
51313;BME280;37397;53.226;10.400;2022-11-20T01:11:38;100738.28;;;3.53;67.96
51313;BME280;37397;53.226;10.400;2022-11-20T01:14:07;100745.53;;;3.54;68.10
51313;BME280;37397;53.226;10.400;2022-11-20T01:16:36;100737.06;;;3.54;68.34
51313;BME280;37397;53.226;10.400;2022-11-20T01:19:05;100737.06;;;3.54;68.14
51313;BME280;37397;53.226;10.400;2022-11-20T01:21:34;100733.00;;;3.55;68.01
51313;BME280;37397;53.226;10.400;2022-11-20T01:24:02;100729.81;;;3.53;68.18
51313;BME280;37397;53.226;10.400;2022-11-20T01:26:31;100733.41;;;3.54;67.97
51313;BME280;37397;53.226;10.400;2022-11-20T01:28:59;100737.50;;;3.53;67.93
51313;BME280;37397;53.226;10.400;2022-11-20T01:31:30;100725.38;;;3.52;67.93
51313;BME280;37397;53.226;10.400;2022-11-20T01:33:59;100727.00;;;3.53;67.91
51313;BME280;37397;53.226;10.400;2022-11-20T01:36:28;100722.94;;;3.54;68.25
51313;BME280;37397;53.226;10.400;2022-11-20T01:39:00;100714.09;;;3.52;68.03
51313;BME280;37397;53.226;10.400;2022-11-20T01:41:29;100714.09;;;3.52;68.16
51313;BME280;37397;53.226;10.400;2022-11-20T01:44:17;100712.53;;;3.51;68.14
51313;BME280;37397;53.226;10.400;2022-11-20T01:47:04;100709.34;;;3.49;68.17
51313;BME280;37397;53.226;10.400;2022-11-20T01:52:12;100700.88;;;3.49;68.16
51313;BME280;37397;53.226;10.400;2022-11-20T01:54:53;100698.06;;;3.49;68.05
51313;BME280;37397;53.226;10.400;2022-11-20T01:57:22;100696.81;;;3.50;67.92
51313;BME280;37397;53.226;10.400;2022-11-20T01:59:57;100696.03;;;3.50;67.89
51313;BME280;37397;53.226;10.400;2022-11-20T02:02:26;100685.19;;;3.48;68.30
51313;BME280;37397;53.226;10.400;2022-11-20T02:04:54;100691.63;;;3.49;67.98
51313;BME280;37397;53.226;10.400;2022-11-20T02:07:23;100682.38;;;3.48;68.30
51313;BME280;37397;53.226;10.400;2022-11-20T02:09:51;100685.97;;;3.49;68.18
51313;BME280;37397;53.226;10.400;2022-11-20T02:12:23;100693.66;;;3.48;67.94
51313;BME280;37397;53.226;10.400;2022-11-20T02:15:09;100680.03;;;3.43;68.00
51313;BME280;37397;53.226;10.400;2022-11-20T02:17:35;100684.47;;;3.44;67.94
51313;BME280;37397;53.226;10.400;2022-11-20T02:20:02;100678.03;;;3.43;68.03
51313;BME280;37397;53.226;10.400;2022-11-20T02:22:37;100680.41;;;3.45;68.07
51313;BME280;37397;53.226;10.400;2022-11-20T02:25:08;100677.22;;;3.43;67.78
51313;BME280;37397;53.226;10.400;2022-11-20T02:27:36;100679.25;;;3.42;67.84
51313;BME280;37397;53.226;10.400;2022-11-20T02:30:05;100674.84;;;3.41;67.88
51313;BME280;37397;53.226;10.400;2022-11-20T02:32:35;100663.56;;;3.41;67.99
51313;BME280;37397;53.226;10.400;2022-11-20T02:37:45;100651.56;;;3.37;67.70
51313;BME280;37397;53.226;10.400;2022-11-20T02:40:14;100651.13;;;3.39;67.86
51313;BME280;37397;53.226;10.400;2022-11-20T02:42:40;100652.34;;;3.38;67.88
51313;BME280;37397;53.226;10.400;2022-11-20T02:45:07;100657.63;;;3.36;68.14
51313;BME280;37397;53.226;10.400;2022-11-20T02:47:34;100658.84;;;3.35;67.95
51313;BME280;37397;53.226;10.400;2022-11-20T02:50:02;100654.47;;;3.34;67.96
51313;BME280;37397;53.226;10.400;2022-11-20T02:52:29;100662.94;;;3.34;67.89
51313;BME280;37397;53.226;10.400;2022-11-20T02:54:56;100653.66;;;3.33;68.00
51313;BME280;37397;53.226;10.400;2022-11-20T02:57:22;100652.50;;;3.31;67.67
51313;BME280;37397;53.226;10.400;2022-11-20T02:59:49;100655.69;;;3.33;67.88
51313;BME280;37397;53.226;10.400;2022-11-20T03:02:16;100652.50;;;3.31;67.81
51313;BME280;37397;53.226;10.400;2022-11-20T03:04:42;100651.72;;;3.30;67.77
51313;BME280;37397;53.226;10.400;2022-11-20T03:07:09;100655.41;;;3.27;67.62
51313;BME280;37397;53.226;10.400;2022-11-20T03:09:36;100662.28;;;3.26;68.09
51313;BME280;37397;53.226;10.400;2022-11-20T03:12:02;100654.97;;;3.28;67.84
51313;BME280;37397;53.226;10.400;2022-11-20T03:14:29;100653.38;;;3.27;67.85
51313;BME280;37397;53.226;10.400;2022-11-20T03:16:56;100657.41;;;3.26;68.03
51313;BME280;37397;53.226;10.400;2022-11-20T03:19:22;100655.84;;;3.25;68.21
51313;BME280;37397;53.226;10.400;2022-11-20T03:21:49;100657.84;;;3.25;68.18
51313;BME280;37397;53.226;10.400;2022-11-20T03:24:16;100662.28;;;3.26;67.92
51313;BME280;37397;53.226;10.400;2022-11-20T03:26:42;100658.66;;;3.25;68.13
51313;BME280;37397;53.226;10.400;2022-11-20T03:29:09;100654.25;;;3.24;68.36
51313;BME280;37397;53.226;10.400;2022-11-20T03:31:38;100644.56;;;3.25;67.96
51313;BME280;37397;53.226;10.400;2022-11-20T03:34:07;100644.19;;;3.23;67.95
51313;BME280;37397;53.226;10.400;2022-11-20T03:36:34;100647.38;;;3.25;68.02
51313;BME280;37397;53.226;10.400;2022-11-20T03:39:01;100644.56;;;3.25;68.24
51313;BME280;37397;53.226;10.400;2022-11-20T03:41:29;100640.94;;;3.25;68.33
51313;BME280;37397;53.226;10.400;2022-11-20T03:43:58;100638.13;;;3.25;68.14
51313;BME280;37397;53.226;10.400;2022-11-20T03:46:26;100638.94;;;3.25;68.24
51313;BME280;37397;53.226;10.400;2022-11-20T03:48:53;100638.13;;;3.25;68.38
51313;BME280;37397;53.226;10.400;2022-11-20T03:51:21;100634.06;;;3.26;68.12
51313;BME280;37397;53.226;10.400;2022-11-20T03:53:50;100633.28;;;3.25;68.02
51313;BME280;37397;53.226;10.400;2022-11-20T03:56:20;100640.50;;;3.26;68.14
51313;BME280;37397;53.226;10.400;2022-11-20T03:58:47;100634.06;;;3.26;68.26
51313;BME280;37397;53.226;10.400;2022-11-20T04:01:16;100636.09;;;3.25;68.02
51313;BME280;37397;53.226;10.400;2022-11-20T04:03:43;100629.66;;;3.25;68.28
51313;BME280;37397;53.226;10.400;2022-11-20T04:06:12;100638.94;;;3.25;68.47
51313;BME280;37397;53.226;10.400;2022-11-20T04:08:40;100633.28;;;3.25;68.14
51313;BME280;37397;53.226;10.400;2022-11-20T04:13:37;100638.94;;;3.25;68.06
51313;BME280;37397;53.226;10.400;2022-11-20T04:16:05;100627.28;;;3.23;68.13
51313;BME280;37397;53.226;10.400;2022-11-20T04:18:33;100637.34;;;3.24;68.26
51313;BME280;37397;53.226;10.400;2022-11-20T04:21:00;100624.44;;;3.23;68.13
51313;BME280;37397;53.226;10.400;2022-11-20T04:23:27;100628.09;;;3.24;68.18
51313;BME280;37397;53.226;10.400;2022-11-20T04:25:54;100634.94;;;3.23;68.25
51313;BME280;37397;53.226;10.400;2022-11-20T04:28:20;100617.25;;;3.22;68.06
51313;BME280;37397;53.226;10.400;2022-11-20T04:30:47;100615.22;;;3.23;68.17
51313;BME280;37397;53.226;10.400;2022-11-20T04:33:14;100624.44;;;3.23;68.39
51313;BME280;37397;53.226;10.400;2022-11-20T04:35:40;100624.44;;;3.23;68.04
51313;BME280;37397;53.226;10.400;2022-11-20T04:38:07;100618.81;;;3.23;68.14
51313;BME280;37397;53.226;10.400;2022-11-20T04:40:33;100614.78;;;3.24;68.15
51313;BME280;37397;53.226;10.400;2022-11-20T04:43:00;100609.56;;;3.23;68.11
51313;BME280;37397;53.226;10.400;2022-11-20T04:45:26;100607.53;;;3.23;68.17
51313;BME280;37397;53.226;10.400;2022-11-20T04:47:53;100609.13;;;3.24;68.13
51313;BME280;37397;53.226;10.400;2022-11-20T04:50:19;100595.91;;;3.21;68.26
51313;BME280;37397;53.226;10.400;2022-11-20T04:52:46;100596.25;;;3.23;68.15
51313;BME280;37397;53.226;10.400;2022-11-20T04:55:12;100596.25;;;3.23;68.27
51313;BME280;37397;53.226;10.400;2022-11-20T04:57:39;100602.72;;;3.24;68.33
51313;BME280;37397;53.226;10.400;2022-11-20T05:00:06;100601.88;;;3.23;68.38
51313;BME280;37397;53.226;10.400;2022-11-20T05:02:33;100599.06;;;3.23;68.26
51313;BME280;37397;53.226;10.400;2022-11-20T05:04:59;100593.44;;;3.23;68.18
51313;BME280;37397;53.226;10.400;2022-11-20T05:07:26;100596.25;;;3.23;68.31
51313;BME280;37397;53.226;10.400;2022-11-20T05:09:53;100603.50;;;3.24;68.28
51313;BME280;37397;53.226;10.400;2022-11-20T05:12:19;100593.09;;;3.21;68.41
51313;BME280;37397;53.226;10.400;2022-11-20T05:14:46;100599.06;;;3.23;68.34
51313;BME280;37397;53.226;10.400;2022-11-20T05:17:13;100590.63;;;3.23;68.31
51313;BME280;37397;53.226;10.400;2022-11-20T05:19:39;100589.41;;;3.24;68.17
51313;BME280;37397;53.226;10.400;2022-11-20T05:22:06;100589.81;;;3.23;68.27
51313;BME280;37397;53.226;10.400;2022-11-20T05:24:32;100581.38;;;3.23;68.31
51313;BME280;37397;53.226;10.400;2022-11-20T05:26:59;100584.19;;;3.23;68.35
51313;BME280;37397;53.226;10.400;2022-11-20T05:29:25;100585.41;;;3.22;68.40
51313;BME280;37397;53.226;10.400;2022-11-20T05:31:52;100583.03;;;3.20;68.30
51313;BME280;37397;53.226;10.400;2022-11-20T05:34:18;100590.63;;;3.23;68.53
51313;BME280;37397;53.226;10.400;2022-11-20T05:36:45;100586.56;;;3.24;68.42
51313;BME280;37397;53.226;10.400;2022-11-20T05:39:11;100584.97;;;3.23;68.44
51313;BME280;37397;53.226;10.400;2022-11-20T05:41:38;100588.16;;;3.25;68.29
51313;BME280;37397;53.226;10.400;2022-11-20T05:44:04;100593.00;;;3.25;68.42
51313;BME280;37397;53.226;10.400;2022-11-20T05:46:31;100584.97;;;3.23;68.45
51313;BME280;37397;53.226;10.400;2022-11-20T05:48:58;100578.56;;;3.23;68.56
51313;BME280;37397;53.226;10.400;2022-11-20T05:51:25;100576.50;;;3.23;68.31
51313;BME280;37397;53.226;10.400;2022-11-20T05:53:52;100580.59;;;3.22;68.30
51313;BME280;37397;53.226;10.400;2022-11-20T05:56:20;100567.63;;;3.25;68.50
51313;BME280;37397;53.226;10.400;2022-11-20T05:58:47;100566.84;;;3.24;68.43
51313;BME280;37397;53.226;10.400;2022-11-20T06:01:21;100570.53;;;3.21;68.36
51313;BME280;37397;53.226;10.400;2022-11-20T06:03:49;100568.88;;;3.24;68.19
51313;BME280;37397;53.226;10.400;2022-11-20T06:06:17;100578.13;;;3.24;68.51
51313;BME280;37397;53.226;10.400;2022-11-20T06:08:45;100568.06;;;3.23;68.42
51313;BME280;37397;53.226;10.400;2022-11-20T06:11:13;100558.03;;;3.22;68.44
51313;BME280;37397;53.226;10.400;2022-11-20T06:13:40;100568.06;;;3.23;68.26
51313;BME280;37397;53.226;10.400;2022-11-20T06:16:08;100568.88;;;3.24;68.44
51313;BME280;37397;53.226;10.400;2022-11-20T06:18:35;100573.69;;;3.23;68.15
51313;BME280;37397;53.226;10.400;2022-11-20T06:21:14;100568.06;;;3.23;68.49
51313;BME280;37397;53.226;10.400;2022-11-20T06:23:41;100566.03;;;3.24;68.49
51313;BME280;37397;53.226;10.400;2022-11-20T06:26:10;100566.47;;;3.22;68.50
51313;BME280;37397;53.226;10.400;2022-11-20T06:28:38;100566.47;;;3.22;68.36
51313;BME280;37397;53.226;10.400;2022-11-20T06:31:05;100567.28;;;3.23;68.49
51313;BME280;37397;53.226;10.400;2022-11-20T06:33:33;100562.41;;;3.23;68.39
51313;BME280;37397;53.226;10.400;2022-11-20T06:36:00;100558.03;;;3.22;68.32
51313;BME280;37397;53.226;10.400;2022-11-20T06:38:35;100569.31;;;3.22;68.35
51313;BME280;37397;53.226;10.400;2022-11-20T06:41:03;100556.44;;;3.21;68.37
51313;BME280;37397;53.226;10.400;2022-11-20T06:43:30;100555.22;;;3.22;68.36
51313;BME280;37397;53.226;10.400;2022-11-20T06:45:57;100555.22;;;3.22;68.34
51313;BME280;37397;53.226;10.400;2022-11-20T06:48:26;100553.59;;;3.21;68.24
51313;BME280;37397;53.226;10.400;2022-11-20T06:50:53;100550.34;;;3.23;68.31
51313;BME280;37397;53.226;10.400;2022-11-20T06:53:19;100541.97;;;3.19;68.20
51313;BME280;37397;53.226;10.400;2022-11-20T06:55:47;100543.94;;;3.22;68.49
51313;BME280;37397;53.226;10.400;2022-11-20T06:58:15;100543.13;;;3.22;68.35
51313;BME280;37397;53.226;10.400;2022-11-20T07:00:41;100532.72;;;3.19;68.42
51313;BME280;37397;53.226;10.400;2022-11-20T07:03:10;100547.97;;;3.21;68.37
51313;BME280;37397;53.226;10.400;2022-11-20T07:05:37;100547.97;;;3.21;68.50
51313;BME280;37397;53.226;10.400;2022-11-20T07:08:05;100541.16;;;3.19;68.39
51313;BME280;37397;53.226;10.400;2022-11-20T07:10:32;100546.38;;;3.20;68.58
51313;BME280;37397;53.226;10.400;2022-11-20T07:12:59;100543.56;;;3.20;68.34
51313;BME280;37397;53.226;10.400;2022-11-20T07:15:26;100547.97;;;3.21;68.32
51313;BME280;37397;53.226;10.400;2022-11-20T07:17:53;100544.78;;;3.19;68.17
51313;BME280;37397;53.226;10.400;2022-11-20T07:20:19;100534.75;;;3.18;68.27
51313;BME280;37397;53.226;10.400;2022-11-20T07:22:46;100533.53;;;3.19;68.06
51313;BME280;37397;53.226;10.400;2022-11-20T07:25:12;100535.09;;;3.20;68.55
51313;BME280;37397;53.226;10.400;2022-11-20T07:27:39;100535.09;;;3.20;68.49
51313;BME280;37397;53.226;10.400;2022-11-20T07:30:06;100534.75;;;3.18;68.51
51313;BME280;37397;53.226;10.400;2022-11-20T07:32:33;100537.56;;;3.18;68.51
51313;BME280;37397;53.226;10.400;2022-11-20T07:34:59;100538.34;;;3.19;68.39
51313;BME280;37397;53.226;10.400;2022-11-20T07:37:26;100539.50;;;3.21;68.53
51313;BME280;37397;53.226;10.400;2022-11-20T07:39:52;100540.72;;;3.20;68.47
51313;BME280;37397;53.226;10.400;2022-11-20T07:42:19;100547.19;;;3.21;68.37
51313;BME280;37397;53.226;10.400;2022-11-20T07:44:49;100535.09;;;3.20;68.39
51313;BME280;37397;53.226;10.400;2022-11-20T07:47:15;100533.53;;;3.19;68.25
51313;BME280;37397;53.226;10.400;2022-11-20T07:49:42;100535.91;;;3.21;68.34
51313;BME280;37397;53.226;10.400;2022-11-20T07:52:08;100539.50;;;3.21;68.52
51313;BME280;37397;53.226;10.400;2022-11-20T07:54:35;100531.91;;;3.18;68.71
51313;BME280;37397;53.226;10.400;2022-11-20T07:57:01;100536.69;;;3.21;68.35
51313;BME280;37397;53.226;10.400;2022-11-20T07:59:28;100539.06;;;3.23;68.41
51313;BME280;37397;53.226;10.400;2022-11-20T08:01:55;100543.13;;;3.22;68.48
51313;BME280;37397;53.226;10.400;2022-11-20T08:04:21;100549.56;;;3.22;68.64
51313;BME280;37397;53.226;10.400;2022-11-20T08:06:51;100543.13;;;3.22;68.64
51313;BME280;37397;53.226;10.400;2022-11-20T08:09:18;100554.78;;;3.24;68.71
51313;BME280;37397;53.226;10.400;2022-11-20T08:11:45;100544.72;;;3.23;68.56
51313;BME280;37397;53.226;10.400;2022-11-20T08:14:30;100541.47;;;3.24;68.71
51313;BME280;37397;53.226;10.400;2022-11-20T08:16:56;100540.66;;;3.24;68.75
51313;BME280;37397;53.226;10.400;2022-11-20T08:19:23;100537.41;;;3.25;68.87
51313;BME280;37397;53.226;10.400;2022-11-20T08:21:50;100548.69;;;3.25;69.03
51313;BME280;37397;53.226;10.400;2022-11-20T08:24:16;100541.03;;;3.26;68.83
51313;BME280;37397;53.226;10.400;2022-11-20T08:26:43;100540.59;;;3.27;68.66
51313;BME280;37397;53.226;10.400;2022-11-20T08:29:09;100532.47;;;3.29;68.90
51313;BME280;37397;53.226;10.400;2022-11-20T08:31:36;100536.88;;;3.31;68.66
51313;BME280;37397;53.226;10.400;2022-11-20T08:34:03;100532.81;;;3.32;68.72
51313;BME280;37397;53.226;10.400;2022-11-20T08:36:35;100542.09;;;3.32;68.89
51313;BME280;37397;53.226;10.400;2022-11-20T08:39:02;100538.47;;;3.32;68.90
51313;BME280;37397;53.226;10.400;2022-11-20T08:41:29;100538.03;;;3.33;68.83
51313;BME280;37397;53.226;10.400;2022-11-20T08:44:00;100538.09;;;3.29;68.81
51313;BME280;37397;53.226;10.400;2022-11-20T08:46:32;100539.63;;;3.34;68.91
51313;BME280;37397;53.226;10.400;2022-11-20T08:49:00;100552.50;;;3.35;68.68
51313;BME280;37397;53.226;10.400;2022-11-20T08:51:26;100545.16;;;3.38;68.89
51313;BME280;37397;53.226;10.400;2022-11-20T08:53:53;100538.31;;;3.39;68.81
51313;BME280;37397;53.226;10.400;2022-11-20T08:56:19;100542.72;;;3.40;68.91
51313;BME280;37397;53.226;10.400;2022-11-20T08:58:46;100547.13;;;3.41;68.83
51313;BME280;37397;53.226;10.400;2022-11-20T09:01:33;100545.13;;;3.41;68.73
51313;BME280;37397;53.226;10.400;2022-11-20T09:03:59;100542.63;;;3.43;68.98
51313;BME280;37397;53.226;10.400;2022-11-20T09:06:26;100545.03;;;3.45;68.79
51313;BME280;37397;53.226;10.400;2022-11-20T09:08:53;100546.97;;;3.48;69.04
51313;BME280;37397;53.226;10.400;2022-11-20T09:11:20;100536.13;;;3.46;68.69
51313;BME280;37397;53.226;10.400;2022-11-20T09:13:47;100547.31;;;3.50;68.80
51313;BME280;37397;53.226;10.400;2022-11-20T09:16:14;100547.66;;;3.52;68.85
51313;BME280;37397;53.226;10.400;2022-11-20T09:18:40;100542.38;;;3.54;68.99
51313;BME280;37397;53.226;10.400;2022-11-20T09:21:11;100542.38;;;3.54;68.71
51313;BME280;37397;53.226;10.400;2022-11-20T09:23:38;100542.38;;;3.54;69.05
51313;BME280;37397;53.226;10.400;2022-11-20T09:26:09;100545.56;;;3.56;68.78
51313;BME280;37397;53.226;10.400;2022-11-20T09:28:37;100549.06;;;3.60;69.04
51313;BME280;37397;53.226;10.400;2022-11-20T09:31:08;100547.84;;;3.61;68.78
51313;BME280;37397;53.226;10.400;2022-11-20T09:33:35;100553.84;;;3.63;69.27
51313;BME280;37397;53.226;10.400;2022-11-20T09:36:02;100549.78;;;3.64;68.85
51313;BME280;37397;53.226;10.400;2022-11-20T09:38:29;100540.44;;;3.68;68.76
51313;BME280;37397;53.226;10.400;2022-11-20T09:41:06;100549.69;;;3.68;68.87
51313;BME280;37397;53.226;10.400;2022-11-20T09:46:44;100538.84;;;3.67;68.73
51313;BME280;37397;53.226;10.400;2022-11-20T09:49:49;100539.56;;;3.71;68.71
51313;BME280;37397;53.226;10.400;2022-11-20T09:52:46;100537.09;;;3.73;68.91
51313;BME280;37397;53.226;10.400;2022-11-20T09:55:16;100533.84;;;3.74;68.81
51313;BME280;37397;53.226;10.400;2022-11-20T09:57:46;100534.19;;;3.76;68.91
51313;BME280;37397;53.226;10.400;2022-11-20T10:00:15;100532.94;;;3.77;68.88
51313;BME280;37397;53.226;10.400;2022-11-20T10:05:44;100533.75;;;3.78;68.46
51313;BME280;37397;53.226;10.400;2022-11-20T10:10:46;100531.25;;;3.80;68.51
51313;BME280;37397;53.226;10.400;2022-11-20T10:13:38;100525.63;;;3.80;68.36
51313;BME280;37397;53.226;10.400;2022-11-20T10:16:16;100534.44;;;3.82;68.63
51313;BME280;37397;53.226;10.400;2022-11-20T10:22:03;100544.06;;;3.84;68.57
51313;BME280;37397;53.226;10.400;2022-11-20T10:24:48;100534.78;;;3.84;68.48
51313;BME280;37397;53.226;10.400;2022-11-20T10:28:11;100532.75;;;3.84;68.37
51313;BME280;37397;53.226;10.400;2022-11-20T10:30:43;100533.91;;;3.87;68.47
51313;BME280;37397;53.226;10.400;2022-11-20T10:33:19;100531.88;;;3.88;68.38
51313;BME280;37397;53.226;10.400;2022-11-20T10:36:21;100527.84;;;3.89;68.73
51313;BME280;37397;53.226;10.400;2022-11-20T10:38:54;100513.38;;;3.87;68.61
51313;BME280;37397;53.226;10.400;2022-11-20T10:41:26;100512.06;;;3.91;68.62
51313;BME280;37397;53.226;10.400;2022-11-20T10:44:17;100515.22;;;3.93;68.46
51313;BME280;37397;53.226;10.400;2022-11-20T10:47:12;100501.09;;;3.93;68.56
51313;BME280;37397;53.226;10.400;2022-11-20T10:49:39;100509.22;;;3.91;68.54
51313;BME280;37397;53.226;10.400;2022-11-20T10:52:16;100506.75;;;3.93;68.65
51313;BME280;37397;53.226;10.400;2022-11-20T11:00:10;100502.22;;;3.96;68.24
51313;BME280;37397;53.226;10.400;2022-11-20T11:02:44;100503.38;;;3.98;68.65
51313;BME280;37397;53.226;10.400;2022-11-20T11:07:49;100498.44;;;4.03;68.26
51313;BME280;37397;53.226;10.400;2022-11-20T11:10:26;100500.00;;;4.04;68.45
51313;BME280;37397;53.226;10.400;2022-11-20T11:12:55;100495.97;;;4.05;68.47
51313;BME280;37397;53.226;10.400;2022-11-20T11:15:29;100501.16;;;4.06;68.32
51313;BME280;37397;53.226;10.400;2022-11-20T11:17:56;100502.50;;;4.01;68.05
51313;BME280;37397;53.226;10.400;2022-11-20T11:20:25;100497.19;;;4.04;68.54
51313;BME280;37397;53.226;10.400;2022-11-20T11:22:58;100501.59;;;4.05;68.33
51313;BME280;37397;53.226;10.400;2022-11-20T11:25:35;100502.84;;;4.04;68.44
51313;BME280;37397;53.226;10.400;2022-11-20T11:30:44;100496.66;;;4.09;68.40
51313;BME280;37397;53.226;10.400;2022-11-20T11:33:31;100500.72;;;4.08;68.20
51313;BME280;37397;53.226;10.400;2022-11-20T11:36:02;100490.56;;;4.10;68.07
51313;BME280;37397;53.226;10.400;2022-11-20T11:38:40;100486.94;;;4.10;68.28
51313;BME280;37397;53.226;10.400;2022-11-20T11:41:14;100496.13;;;4.14;68.20
51313;BME280;37397;53.226;10.400;2022-11-20T11:43:51;100498.94;;;4.14;68.05
51313;BME280;37397;53.226;10.400;2022-11-20T11:46:38;100488.00;;;4.16;68.15
51313;BME280;37397;53.226;10.400;2022-11-20T11:54:30;100480.19;;;4.20;67.90
51313;BME280;37397;53.226;10.400;2022-11-20T11:57:01;100486.56;;;4.24;68.15
51313;BME280;37397;53.226;10.400;2022-11-20T11:59:57;100486.56;;;4.24;67.96
51313;BME280;37397;53.226;10.400;2022-11-20T12:02:37;100483.72;;;4.24;67.87
51313;BME280;37397;53.226;10.400;2022-11-20T12:05:22;100472.78;;;4.26;67.86
51313;BME280;37397;53.226;10.400;2022-11-20T12:13:04;100470.53;;;4.34;68.31
51313;BME280;37397;53.226;10.400;2022-11-20T12:15:37;100465.25;;;4.36;68.26
51313;BME280;37397;53.226;10.400;2022-11-20T12:18:15;100463.56;;;4.38;68.21
51313;BME280;37397;53.226;10.400;2022-11-20T12:20:47;100462.66;;;4.42;68.04
51313;BME280;37397;53.226;10.400;2022-11-20T12:23:28;100454.53;;;4.44;67.95
51313;BME280;37397;53.226;10.400;2022-11-20T12:26:05;100447.97;;;4.47;67.85
51313;BME280;37397;53.226;10.400;2022-11-20T12:28:47;100449.59;;;4.48;67.62
51313;BME280;37397;53.226;10.400;2022-11-20T12:31:42;100442.66;;;4.49;67.31
51313;BME280;37397;53.226;10.400;2022-11-20T12:39:55;100445.31;;;4.56;67.84
51313;BME280;37397;53.226;10.400;2022-11-20T12:42:46;100447.69;;;4.57;67.80
51313;BME280;37397;53.226;10.400;2022-11-20T12:51:39;100434.22;;;4.62;67.57
51313;BME280;37397;53.226;10.400;2022-11-20T13:05:17;100450.41;;;4.74;67.63
51313;BME280;37397;53.226;10.400;2022-11-20T13:07:45;100446.00;;;4.73;67.47
51313;BME280;37397;53.226;10.400;2022-11-20T13:10:52;100450.41;;;4.74;67.41
51313;BME280;37397;53.226;10.400;2022-11-20T13:19:11;100441.03;;;4.77;67.38
51313;BME280;37397;53.226;10.400;2022-11-20T13:21:43;100436.50;;;4.80;67.05
51313;BME280;37397;53.226;10.400;2022-11-20T13:29:28;100439.88;;;4.74;67.39
51313;BME280;37397;53.226;10.400;2022-11-20T13:34:34;100440.59;;;4.79;67.35
51313;BME280;37397;53.226;10.400;2022-11-20T13:37:02;100431.78;;;4.77;67.14
51313;BME280;37397;53.226;10.400;2022-11-20T13:39:34;100444.97;;;4.80;67.17
51313;BME280;37397;53.226;10.400;2022-11-20T13:42:03;100436.50;;;4.80;67.17
51313;BME280;37397;53.226;10.400;2022-11-20T13:44:50;100443.41;;;4.79;66.84
51313;BME280;37397;53.226;10.400;2022-11-20T13:49:48;100435.72;;;4.79;67.00
51313;BME280;37397;53.226;10.400;2022-11-20T14:01:19;100419.78;;;4.72;66.62
51313;BME280;37397;53.226;10.400;2022-11-20T14:03:47;100421.38;;;4.73;66.77
51313;BME280;37397;53.226;10.400;2022-11-20T14:06:41;100412.88;;;4.73;66.60
51313;BME280;37397;53.226;10.400;2022-11-20T14:09:11;100412.53;;;4.71;66.65
51313;BME280;37397;53.226;10.400;2022-11-20T14:11:46;100416.94;;;4.72;66.86
51313;BME280;37397;53.226;10.400;2022-11-20T14:14:16;100413.34;;;4.72;66.81
51313;BME280;37397;53.226;10.400;2022-11-20T14:16:43;100418.19;;;4.71;66.98
51313;BME280;37397;53.226;10.400;2022-11-20T14:19:23;100413.78;;;4.70;66.45
51313;BME280;37397;53.226;10.400;2022-11-20T14:21:53;100420.66;;;4.69;66.67
51313;BME280;37397;53.226;10.400;2022-11-20T14:24:22;100412.97;;;4.70;66.49
51313;BME280;37397;53.226;10.400;2022-11-20T14:26:51;100407.44;;;4.66;66.73
51313;BME280;37397;53.226;10.400;2022-11-20T14:29:19;100407.78;;;4.68;66.49
51313;BME280;37397;53.226;10.400;2022-11-20T14:31:46;100411.84;;;4.67;66.58
51313;BME280;37397;53.226;10.400;2022-11-20T14:34:24;100411.03;;;4.67;66.56